sensor_id;sensor_type;location;lat;lon;timestamp;temperature;humidity
55135;DHT22;41031;44.750;11.308;2022-07-22T00:00:14;26.70;64.80
55135;DHT22;41031;44.750;11.308;2022-07-22T00:02:42;26.70;65.10
55135;DHT22;41031;44.750;11.308;2022-07-22T00:05:10;26.60;65.10
55135;DHT22;41031;44.750;11.308;2022-07-22T00:07:38;26.70;65.50
55135;DHT22;41031;44.750;11.308;2022-07-22T00:10:07;26.70;65.60
55135;DHT22;41031;44.750;11.308;2022-07-22T00:12:34;26.60;66.00
55135;DHT22;41031;44.750;11.308;2022-07-22T00:15:02;26.70;66.40
55135;DHT22;41031;44.750;11.308;2022-07-22T00:17:29;26.60;66.80
55135;DHT22;41031;44.750;11.308;2022-07-22T00:19:56;26.60;67.70
55135;DHT22;41031;44.750;11.308;2022-07-22T00:22:24;26.60;67.30
55135;DHT22;41031;44.750;11.308;2022-07-22T00:24:51;26.60;67.70
55135;DHT22;41031;44.750;11.308;2022-07-22T00:27:18;26.50;67.80
55135;DHT22;41031;44.750;11.308;2022-07-22T00:29:45;26.50;68.10
55135;DHT22;41031;44.750;11.308;2022-07-22T00:32:12;26.60;68.40
55135;DHT22;41031;44.750;11.308;2022-07-22T00:34:39;26.50;68.60
55135;DHT22;41031;44.750;11.308;2022-07-22T00:37:06;26.50;68.90
55135;DHT22;41031;44.750;11.308;2022-07-22T00:39:34;26.50;69.10
55135;DHT22;41031;44.750;11.308;2022-07-22T00:42:02;26.50;69.80
55135;DHT22;41031;44.750;11.308;2022-07-22T00:44:29;26.50;70.50
55135;DHT22;41031;44.750;11.308;2022-07-22T00:47:03;26.50;70.60
55135;DHT22;41031;44.750;11.308;2022-07-22T00:49:31;26.40;70.70
55135;DHT22;41031;44.750;11.308;2022-07-22T00:51:58;26.40;71.60
55135;DHT22;41031;44.750;11.308;2022-07-22T00:54:26;26.50;71.20
55135;DHT22;41031;44.750;11.308;2022-07-22T00:56:54;26.40;71.20
55135;DHT22;41031;44.750;11.308;2022-07-22T00:59:22;26.40;71.20
55135;DHT22;41031;44.750;11.308;2022-07-22T01:01:49;26.40;71.30
55135;DHT22;41031;44.750;11.308;2022-07-22T01:04:17;26.40;71.70
55135;DHT22;41031;44.750;11.308;2022-07-22T01:06:44;26.40;71.90
55135;DHT22;41031;44.750;11.308;2022-07-22T01:09:13;26.40;72.00
55135;DHT22;41031;44.750;11.308;2022-07-22T01:11:41;26.40;71.90
55135;DHT22;41031;44.750;11.308;2022-07-22T01:14:08;26.40;72.10
55135;DHT22;41031;44.750;11.308;2022-07-22T01:16:36;26.40;72.40
55135;DHT22;41031;44.750;11.308;2022-07-22T01:19:04;26.30;72.40
55135;DHT22;41031;44.750;11.308;2022-07-22T01:21:31;26.30;72.30
55135;DHT22;41031;44.750;11.308;2022-07-22T01:24:00;26.30;72.50
55135;DHT22;41031;44.750;11.308;2022-07-22T01:26:28;26.20;72.30
55135;DHT22;41031;44.750;11.308;2022-07-22T01:28:55;26.20;72.10
55135;DHT22;41031;44.750;11.308;2022-07-22T01:31:23;26.20;72.30
55135;DHT22;41031;44.750;11.308;2022-07-22T01:33:50;26.10;72.80
55135;DHT22;41031;44.750;11.308;2022-07-22T01:36:17;26.10;73.00
55135;DHT22;41031;44.750;11.308;2022-07-22T01:38:45;26.10;73.20
55135;DHT22;41031;44.750;11.308;2022-07-22T01:41:12;26.10;73.50
55135;DHT22;41031;44.750;11.308;2022-07-22T01:43:40;26.10;73.80
55135;DHT22;41031;44.750;11.308;2022-07-22T01:46:07;26.00;74.00
55135;DHT22;41031;44.750;11.308;2022-07-22T01:48:39;26.00;74.10
55135;DHT22;41031;44.750;11.308;2022-07-22T01:51:06;26.00;74.20
55135;DHT22;41031;44.750;11.308;2022-07-22T01:53:35;26.00;74.20
55135;DHT22;41031;44.750;11.308;2022-07-22T01:56:02;26.00;74.20
55135;DHT22;41031;44.750;11.308;2022-07-22T01:58:34;26.00;74.10
55135;DHT22;41031;44.750;11.308;2022-07-22T02:01:08;25.90;74.00
55135;DHT22;41031;44.750;11.308;2022-07-22T02:03:36;25.90;74.00
55135;DHT22;41031;44.750;11.308;2022-07-22T02:06:05;25.90;74.20
55135;DHT22;41031;44.750;11.308;2022-07-22T02:08:33;25.90;74.40
55135;DHT22;41031;44.750;11.308;2022-07-22T02:11:13;25.80;74.50
55135;DHT22;41031;44.750;11.308;2022-07-22T02:13:55;25.80;74.70
55135;DHT22;41031;44.750;11.308;2022-07-22T02:16:23;25.80;75.00
55135;DHT22;41031;44.750;11.308;2022-07-22T02:18:51;25.80;75.20
55135;DHT22;41031;44.750;11.308;2022-07-22T02:21:20;25.80;75.30
55135;DHT22;41031;44.750;11.308;2022-07-22T02:23:50;25.80;75.50
55135;DHT22;41031;44.750;11.308;2022-07-22T02:26:18;25.70;75.60
55135;DHT22;41031;44.750;11.308;2022-07-22T02:28:45;25.70;75.50
55135;DHT22;41031;44.750;11.308;2022-07-22T02:31:12;25.70;75.20
55135;DHT22;41031;44.750;11.308;2022-07-22T02:33:40;25.60;75.00
55135;DHT22;41031;44.750;11.308;2022-07-22T02:36:08;25.60;75.20
55135;DHT22;41031;44.750;11.308;2022-07-22T02:38:36;25.60;75.50
55135;DHT22;41031;44.750;11.308;2022-07-22T02:41:03;25.60;75.80
55135;DHT22;41031;44.750;11.308;2022-07-22T02:43:33;25.50;75.80
55135;DHT22;41031;44.750;11.308;2022-07-22T02:46:00;25.50;75.70
55135;DHT22;41031;44.750;11.308;2022-07-22T02:48:27;25.50;75.80
55135;DHT22;41031;44.750;11.308;2022-07-22T02:50:55;25.50;75.80
55135;DHT22;41031;44.750;11.308;2022-07-22T02:53:24;25.40;75.30
55135;DHT22;41031;44.750;11.308;2022-07-22T02:55:52;25.40;74.80
55135;DHT22;41031;44.750;11.308;2022-07-22T02:58:19;25.30;75.00
55135;DHT22;41031;44.750;11.308;2022-07-22T03:00:46;25.20;75.50
55135;DHT22;41031;44.750;11.308;2022-07-22T03:03:14;25.20;76.30
55135;DHT22;41031;44.750;11.308;2022-07-22T03:05:41;25.20;76.60
55135;DHT22;41031;44.750;11.308;2022-07-22T03:08:31;25.10;77.00
55135;DHT22;41031;44.750;11.308;2022-07-22T03:10:59;25.10;77.70
55135;DHT22;41031;44.750;11.308;2022-07-22T03:13:26;25.10;77.10
55135;DHT22;41031;44.750;11.308;2022-07-22T03:15:53;25.00;77.00
55135;DHT22;41031;44.750;11.308;2022-07-22T03:18:21;25.00;77.30
55135;DHT22;41031;44.750;11.308;2022-07-22T03:20:48;25.00;77.60
55135;DHT22;41031;44.750;11.308;2022-07-22T03:23:16;25.00;78.10
55135;DHT22;41031;44.750;11.308;2022-07-22T03:25:43;25.00;78.50
55135;DHT22;41031;44.750;11.308;2022-07-22T03:28:10;25.00;78.70
55135;DHT22;41031;44.750;11.308;2022-07-22T03:30:38;24.90;79.30
55135;DHT22;41031;44.750;11.308;2022-07-22T03:33:05;25.00;79.00
55135;DHT22;41031;44.750;11.308;2022-07-22T03:35:37;25.00;79.10
55135;DHT22;41031;44.750;11.308;2022-07-22T03:38:04;25.00;79.00
55135;DHT22;41031;44.750;11.308;2022-07-22T03:40:31;24.90;78.90
55135;DHT22;41031;44.750;11.308;2022-07-22T03:42:59;25.00;78.90
55135;DHT22;41031;44.750;11.308;2022-07-22T03:45:26;24.90;78.50
55135;DHT22;41031;44.750;11.308;2022-07-22T03:47:53;24.90;78.40
55135;DHT22;41031;44.750;11.308;2022-07-22T03:50:24;24.90;78.10
55135;DHT22;41031;44.750;11.308;2022-07-22T03:52:51;24.80;77.70
55135;DHT22;41031;44.750;11.308;2022-07-22T03:55:19;24.80;77.50
55135;DHT22;41031;44.750;11.308;2022-07-22T03:57:50;24.80;77.80
55135;DHT22;41031;44.750;11.308;2022-07-22T04:00:24;24.70;78.00
55135;DHT22;41031;44.750;11.308;2022-07-22T04:02:51;24.70;78.20
55135;DHT22;41031;44.750;11.308;2022-07-22T04:05:42;24.70;78.40
55135;DHT22;41031;44.750;11.308;2022-07-22T04:08:10;24.70;78.40
55135;DHT22;41031;44.750;11.308;2022-07-22T04:10:37;24.60;78.30
55135;DHT22;41031;44.750;11.308;2022-07-22T04:13:04;24.60;78.10
55135;DHT22;41031;44.750;11.308;2022-07-22T04:15:54;24.60;77.90
55135;DHT22;41031;44.750;11.308;2022-07-22T04:18:22;24.60;77.80
55135;DHT22;41031;44.750;11.308;2022-07-22T04:20:49;24.60;78.00
55135;DHT22;41031;44.750;11.308;2022-07-22T04:23:19;24.50;78.20
55135;DHT22;41031;44.750;11.308;2022-07-22T04:25:52;24.50;78.30
55135;DHT22;41031;44.750;11.308;2022-07-22T04:28:19;24.50;78.40
55135;DHT22;41031;44.750;11.308;2022-07-22T04:30:46;24.50;78.70
55135;DHT22;41031;44.750;11.308;2022-07-22T04:33:13;24.50;78.60
55135;DHT22;41031;44.750;11.308;2022-07-22T04:35:41;24.60;77.90
55135;DHT22;41031;44.750;11.308;2022-07-22T04:38:16;24.60;77.60
55135;DHT22;41031;44.750;11.308;2022-07-22T04:40:54;24.60;77.90
55135;DHT22;41031;44.750;11.308;2022-07-22T04:43:23;24.60;77.90
55135;DHT22;41031;44.750;11.308;2022-07-22T04:45:50;24.70;77.90
55135;DHT22;41031;44.750;11.308;2022-07-22T04:48:18;24.70;77.90
55135;DHT22;41031;44.750;11.308;2022-07-22T04:50:47;24.80;78.20
55135;DHT22;41031;44.750;11.308;2022-07-22T04:53:14;24.90;78.30
55135;DHT22;41031;44.750;11.308;2022-07-22T04:55:42;24.90;78.30
55135;DHT22;41031;44.750;11.308;2022-07-22T04:58:09;25.00;78.30
55135;DHT22;41031;44.750;11.308;2022-07-22T05:00:44;25.00;78.20
55135;DHT22;41031;44.750;11.308;2022-07-22T05:03:11;25.10;78.00
55135;DHT22;41031;44.750;11.308;2022-07-22T05:05:40;25.20;78.10
55135;DHT22;41031;44.750;11.308;2022-07-22T05:08:07;25.30;78.40
55135;DHT22;41031;44.750;11.308;2022-07-22T05:10:36;25.40;78.70
55135;DHT22;41031;44.750;11.308;2022-07-22T05:13:04;25.50;78.80
55135;DHT22;41031;44.750;11.308;2022-07-22T05:15:32;25.60;78.80
55135;DHT22;41031;44.750;11.308;2022-07-22T05:18:00;25.60;78.70
55135;DHT22;41031;44.750;11.308;2022-07-22T05:20:30;25.70;78.50
55135;DHT22;41031;44.750;11.308;2022-07-22T05:22:58;25.90;78.40
55135;DHT22;41031;44.750;11.308;2022-07-22T05:25:29;26.00;78.10
55135;DHT22;41031;44.750;11.308;2022-07-22T05:27:57;26.10;77.80
55135;DHT22;41031;44.750;11.308;2022-07-22T05:30:32;26.30;77.80
55135;DHT22;41031;44.750;11.308;2022-07-22T05:33:02;26.40;77.60
55135;DHT22;41031;44.750;11.308;2022-07-22T05:35:49;26.50;77.20
55135;DHT22;41031;44.750;11.308;2022-07-22T05:38:18;26.70;76.60
55135;DHT22;41031;44.750;11.308;2022-07-22T05:40:45;26.80;76.00
55135;DHT22;41031;44.750;11.308;2022-07-22T05:43:13;26.90;75.40
55135;DHT22;41031;44.750;11.308;2022-07-22T05:45:40;27.10;74.80
55135;DHT22;41031;44.750;11.308;2022-07-22T05:48:07;27.20;74.40
55135;DHT22;41031;44.750;11.308;2022-07-22T05:50:35;27.40;74.00
55135;DHT22;41031;44.750;11.308;2022-07-22T05:53:03;27.50;73.40
55135;DHT22;41031;44.750;11.308;2022-07-22T05:55:32;27.60;72.30
55135;DHT22;41031;44.750;11.308;2022-07-22T05:57:59;27.70;71.70
55135;DHT22;41031;44.750;11.308;2022-07-22T06:00:26;27.80;71.10
55135;DHT22;41031;44.750;11.308;2022-07-22T06:02:54;27.90;70.50
55135;DHT22;41031;44.750;11.308;2022-07-22T06:05:22;28.00;69.70
55135;DHT22;41031;44.750;11.308;2022-07-22T06:08:10;28.20;69.10
55135;DHT22;41031;44.750;11.308;2022-07-22T06:10:42;28.30;68.70
55135;DHT22;41031;44.750;11.308;2022-07-22T06:13:09;28.30;68.00
55135;DHT22;41031;44.750;11.308;2022-07-22T06:15:38;28.40;67.50
55135;DHT22;41031;44.750;11.308;2022-07-22T06:18:05;28.50;67.60
55135;DHT22;41031;44.750;11.308;2022-07-22T06:20:33;28.60;67.60
55135;DHT22;41031;44.750;11.308;2022-07-22T06:23:00;28.70;68.00
55135;DHT22;41031;44.750;11.308;2022-07-22T06:25:28;28.80;67.30
55135;DHT22;41031;44.750;11.308;2022-07-22T06:28:20;28.80;66.60
55135;DHT22;41031;44.750;11.308;2022-07-22T06:30:48;28.80;66.50
55135;DHT22;41031;44.750;11.308;2022-07-22T06:33:16;28.90;66.30
55135;DHT22;41031;44.750;11.308;2022-07-22T06:35:44;29.00;65.50
55135;DHT22;41031;44.750;11.308;2022-07-22T06:38:11;29.10;64.50
55135;DHT22;41031;44.750;11.308;2022-07-22T06:41:14;29.20;64.60
55135;DHT22;41031;44.750;11.308;2022-07-22T06:44:06;29.20;63.90
55135;DHT22;41031;44.750;11.308;2022-07-22T06:46:45;29.30;63.70
55135;DHT22;41031;44.750;11.308;2022-07-22T06:49:15;29.30;63.00
55135;DHT22;41031;44.750;11.308;2022-07-22T06:51:44;29.30;63.50
55135;DHT22;41031;44.750;11.308;2022-07-22T06:54:11;29.50;63.80
55135;DHT22;41031;44.750;11.308;2022-07-22T06:56:39;29.60;63.60
55135;DHT22;41031;44.750;11.308;2022-07-22T06:59:10;29.90;63.10
55135;DHT22;41031;44.750;11.308;2022-07-22T07:01:37;30.10;62.40
55135;DHT22;41031;44.750;11.308;2022-07-22T07:04:04;30.40;61.20
55135;DHT22;41031;44.750;11.308;2022-07-22T07:06:33;30.60;60.10
55135;DHT22;41031;44.750;11.308;2022-07-22T07:09:02;30.80;59.20
55135;DHT22;41031;44.750;11.308;2022-07-22T07:11:31;30.90;58.60
55135;DHT22;41031;44.750;11.308;2022-07-22T07:14:00;31.10;58.00
55135;DHT22;41031;44.750;11.308;2022-07-22T07:16:28;31.20;57.90
55135;DHT22;41031;44.750;11.308;2022-07-22T07:18:55;31.40;57.70
55135;DHT22;41031;44.750;11.308;2022-07-22T07:21:23;31.50;57.20
55135;DHT22;41031;44.750;11.308;2022-07-22T07:23:50;31.70;56.50
55135;DHT22;41031;44.750;11.308;2022-07-22T07:26:18;31.90;55.80
55135;DHT22;41031;44.750;11.308;2022-07-22T07:28:46;32.10;54.70
55135;DHT22;41031;44.750;11.308;2022-07-22T07:31:17;32.20;54.60
55135;DHT22;41031;44.750;11.308;2022-07-22T07:33:47;32.40;54.20
55135;DHT22;41031;44.750;11.308;2022-07-22T07:36:15;32.60;53.90
55135;DHT22;41031;44.750;11.308;2022-07-22T07:38:47;32.70;53.30
55135;DHT22;41031;44.750;11.308;2022-07-22T07:41:16;32.90;52.70
55135;DHT22;41031;44.750;11.308;2022-07-22T07:43:47;33.00;52.70
55135;DHT22;41031;44.750;11.308;2022-07-22T07:46:14;33.10;52.20
55135;DHT22;41031;44.750;11.308;2022-07-22T07:48:42;33.20;51.80
55135;DHT22;41031;44.750;11.308;2022-07-22T07:51:09;33.30;51.50
55135;DHT22;41031;44.750;11.308;2022-07-22T07:53:39;33.40;51.20
55135;DHT22;41031;44.750;11.308;2022-07-22T07:56:08;33.60;50.80
55135;DHT22;41031;44.750;11.308;2022-07-22T07:58:35;33.70;50.90
55135;DHT22;41031;44.750;11.308;2022-07-22T08:01:06;33.80;50.20
55135;DHT22;41031;44.750;11.308;2022-07-22T08:03:35;33.90;49.70
55135;DHT22;41031;44.750;11.308;2022-07-22T08:06:04;34.00;49.00
55135;DHT22;41031;44.750;11.308;2022-07-22T08:08:32;34.10;49.60
55135;DHT22;41031;44.750;11.308;2022-07-22T08:11:06;34.10;48.10
55135;DHT22;41031;44.750;11.308;2022-07-22T08:13:47;34.20;49.00
55135;DHT22;41031;44.750;11.308;2022-07-22T08:16:33;34.20;48.10
55135;DHT22;41031;44.750;11.308;2022-07-22T08:19:00;34.20;48.40
55135;DHT22;41031;44.750;11.308;2022-07-22T08:21:27;34.30;48.50
55135;DHT22;41031;44.750;11.308;2022-07-22T08:23:57;34.40;48.10
55135;DHT22;41031;44.750;11.308;2022-07-22T08:26:25;34.50;48.20
55135;DHT22;41031;44.750;11.308;2022-07-22T08:28:58;34.60;48.10
55135;DHT22;41031;44.750;11.308;2022-07-22T08:31:27;34.70;48.20
55135;DHT22;41031;44.750;11.308;2022-07-22T08:33:57;34.80;48.20
55135;DHT22;41031;44.750;11.308;2022-07-22T08:36:27;35.00;48.10
55135;DHT22;41031;44.750;11.308;2022-07-22T08:38:55;35.10;47.00
55135;DHT22;41031;44.750;11.308;2022-07-22T08:41:24;35.20;47.20
55135;DHT22;41031;44.750;11.308;2022-07-22T08:43:53;35.40;47.10
55135;DHT22;41031;44.750;11.308;2022-07-22T08:46:22;35.50;46.70
55135;DHT22;41031;44.750;11.308;2022-07-22T08:49:07;35.70;46.20
55135;DHT22;41031;44.750;11.308;2022-07-22T08:51:53;35.90;46.40
55135;DHT22;41031;44.750;11.308;2022-07-22T08:54:23;36.00;45.20
55135;DHT22;41031;44.750;11.308;2022-07-22T08:56:52;36.10;45.60
55135;DHT22;41031;44.750;11.308;2022-07-22T08:59:21;36.30;45.20
55135;DHT22;41031;44.750;11.308;2022-07-22T09:02:09;36.30;44.60
55135;DHT22;41031;44.750;11.308;2022-07-22T09:04:55;36.40;44.60
55135;DHT22;41031;44.750;11.308;2022-07-22T09:07:34;36.50;44.20
55135;DHT22;41031;44.750;11.308;2022-07-22T09:10:13;36.60;43.80
55135;DHT22;41031;44.750;11.308;2022-07-22T09:13:01;36.70;43.20
55135;DHT22;41031;44.750;11.308;2022-07-22T09:15:55;36.90;43.20
55135;DHT22;41031;44.750;11.308;2022-07-22T09:18:50;37.00;42.60
55135;DHT22;41031;44.750;11.308;2022-07-22T09:21:48;37.10;42.80
55135;DHT22;41031;44.750;11.308;2022-07-22T09:24:32;37.20;42.20
55135;DHT22;41031;44.750;11.308;2022-07-22T09:27:26;37.30;41.50
55135;DHT22;41031;44.750;11.308;2022-07-22T09:30:24;37.40;41.10
55135;DHT22;41031;44.750;11.308;2022-07-22T09:33:02;37.40;40.90
55135;DHT22;41031;44.750;11.308;2022-07-22T09:35:41;37.40;40.60
55135;DHT22;41031;44.750;11.308;2022-07-22T09:38:18;37.50;40.30
55135;DHT22;41031;44.750;11.308;2022-07-22T09:40:48;37.60;40.60
55135;DHT22;41031;44.750;11.308;2022-07-22T09:43:18;37.60;40.20
55135;DHT22;41031;44.750;11.308;2022-07-22T09:45:49;37.70;39.60
55135;DHT22;41031;44.750;11.308;2022-07-22T09:48:19;37.80;39.60
55135;DHT22;41031;44.750;11.308;2022-07-22T09:50:49;37.90;39.70
55135;DHT22;41031;44.750;11.308;2022-07-22T09:53:29;38.00;39.80
55135;DHT22;41031;44.750;11.308;2022-07-22T09:56:16;38.10;38.80
55135;DHT22;41031;44.750;11.308;2022-07-22T09:58:44;38.20;38.30
55135;DHT22;41031;44.750;11.308;2022-07-22T10:01:40;38.30;38.10
55135;DHT22;41031;44.750;11.308;2022-07-22T10:04:09;38.40;37.70
55135;DHT22;41031;44.750;11.308;2022-07-22T10:06:39;38.40;37.30
55135;DHT22;41031;44.750;11.308;2022-07-22T10:09:14;38.50;38.20
55135;DHT22;41031;44.750;11.308;2022-07-22T10:11:43;38.50;37.40
55135;DHT22;41031;44.750;11.308;2022-07-22T10:14:17;38.60;36.90
55135;DHT22;41031;44.750;11.308;2022-07-22T10:16:51;38.70;36.60
55135;DHT22;41031;44.750;11.308;2022-07-22T10:19:19;38.80;36.40
55135;DHT22;41031;44.750;11.308;2022-07-22T10:21:46;38.80;36.80
55135;DHT22;41031;44.750;11.308;2022-07-22T10:24:15;38.80;36.60
55135;DHT22;41031;44.750;11.308;2022-07-22T10:26:56;38.80;37.40
55135;DHT22;41031;44.750;11.308;2022-07-22T10:29:40;38.80;35.90
55135;DHT22;41031;44.750;11.308;2022-07-22T10:34:43;39.00;35.30
55135;DHT22;41031;44.750;11.308;2022-07-22T10:40:11;39.10;35.30
55135;DHT22;41031;44.750;11.308;2022-07-22T10:45:39;39.30;34.90
55135;DHT22;41031;44.750;11.308;2022-07-22T10:48:09;39.30;35.00
55135;DHT22;41031;44.750;11.308;2022-07-22T10:53:09;39.50;34.30
55135;DHT22;41031;44.750;11.308;2022-07-22T10:55:37;39.50;33.80
55135;DHT22;41031;44.750;11.308;2022-07-22T11:01:06;39.50;32.10
55135;DHT22;41031;44.750;11.308;2022-07-22T11:03:35;39.60;33.20
55135;DHT22;41031;44.750;11.308;2022-07-22T11:06:30;39.60;32.70
55135;DHT22;41031;44.750;11.308;2022-07-22T11:09:03;39.60;32.60
55135;DHT22;41031;44.750;11.308;2022-07-22T11:11:52;39.70;31.90
55135;DHT22;41031;44.750;11.308;2022-07-22T11:14:24;39.90;31.50
55135;DHT22;41031;44.750;11.308;2022-07-22T11:16:57;40.00;31.30
55135;DHT22;41031;44.750;11.308;2022-07-22T11:19:26;40.00;30.90
55135;DHT22;41031;44.750;11.308;2022-07-22T11:22:03;40.00;30.80
55135;DHT22;41031;44.750;11.308;2022-07-22T11:24:32;40.10;31.40
55135;DHT22;41031;44.750;11.308;2022-07-22T11:27:01;40.20;31.00
55135;DHT22;41031;44.750;11.308;2022-07-22T11:29:36;40.30;30.90
55135;DHT22;41031;44.750;11.308;2022-07-22T11:32:10;40.30;31.20
55135;DHT22;41031;44.750;11.308;2022-07-22T11:34:41;40.30;31.50
55135;DHT22;41031;44.750;11.308;2022-07-22T11:37:10;40.40;31.50
55135;DHT22;41031;44.750;11.308;2022-07-22T11:39:37;40.50;31.40
55135;DHT22;41031;44.750;11.308;2022-07-22T11:42:05;40.50;31.60
55135;DHT22;41031;44.750;11.308;2022-07-22T11:44:35;40.50;31.60
55135;DHT22;41031;44.750;11.308;2022-07-22T11:47:04;40.70;31.40
55135;DHT22;41031;44.750;11.308;2022-07-22T11:49:35;40.70;31.70
55135;DHT22;41031;44.750;11.308;2022-07-22T11:52:04;40.80;31.70
55135;DHT22;41031;44.750;11.308;2022-07-22T11:54:32;40.70;31.80
55135;DHT22;41031;44.750;11.308;2022-07-22T11:57:01;40.70;31.60
55135;DHT22;41031;44.750;11.308;2022-07-22T11:59:29;40.70;32.00
55135;DHT22;41031;44.750;11.308;2022-07-22T12:01:56;40.70;32.10
55135;DHT22;41031;44.750;11.308;2022-07-22T12:04:25;40.80;31.10
55135;DHT22;41031;44.750;11.308;2022-07-22T12:06:54;40.80;31.50
55135;DHT22;41031;44.750;11.308;2022-07-22T12:09:28;40.80;31.30
55135;DHT22;41031;44.750;11.308;2022-07-22T12:11:57;40.70;31.40
55135;DHT22;41031;44.750;11.308;2022-07-22T12:14:30;40.70;31.60
55135;DHT22;41031;44.750;11.308;2022-07-22T12:17:01;40.70;31.90
55135;DHT22;41031;44.750;11.308;2022-07-22T12:19:31;40.70;31.80
55135;DHT22;41031;44.750;11.308;2022-07-22T12:22:05;40.80;31.50
55135;DHT22;41031;44.750;11.308;2022-07-22T12:25:00;40.80;31.50
55135;DHT22;41031;44.750;11.308;2022-07-22T12:27:28;40.90;31.00
55135;DHT22;41031;44.750;11.308;2022-07-22T12:29:57;40.90;31.10
55135;DHT22;41031;44.750;11.308;2022-07-22T12:32:27;40.90;30.80
55135;DHT22;41031;44.750;11.308;2022-07-22T12:34:59;40.80;30.80
55135;DHT22;41031;44.750;11.308;2022-07-22T12:37:29;40.80;30.90
55135;DHT22;41031;44.750;11.308;2022-07-22T12:40:03;40.80;30.60
55135;DHT22;41031;44.750;11.308;2022-07-22T12:42:39;40.70;31.10
55135;DHT22;41031;44.750;11.308;2022-07-22T12:47:46;40.70;30.90
55135;DHT22;41031;44.750;11.308;2022-07-22T12:50:32;40.70;30.60
55135;DHT22;41031;44.750;11.308;2022-07-22T12:53:04;40.70;30.80
55135;DHT22;41031;44.750;11.308;2022-07-22T12:58:15;40.50;30.80
55135;DHT22;41031;44.750;11.308;2022-07-22T13:00:48;40.50;30.80
55135;DHT22;41031;44.750;11.308;2022-07-22T13:03:17;40.50;31.50
55135;DHT22;41031;44.750;11.308;2022-07-22T13:05:58;40.50;31.40
55135;DHT22;41031;44.750;11.308;2022-07-22T13:08:28;40.60;31.50
55135;DHT22;41031;44.750;11.308;2022-07-22T13:11:10;40.70;31.60
55135;DHT22;41031;44.750;11.308;2022-07-22T13:13:38;40.60;30.90
55135;DHT22;41031;44.750;11.308;2022-07-22T13:16:05;40.40;31.50
55135;DHT22;41031;44.750;11.308;2022-07-22T13:18:33;40.40;31.60
55135;DHT22;41031;44.750;11.308;2022-07-22T13:21:00;40.40;32.00
55135;DHT22;41031;44.750;11.308;2022-07-22T13:23:28;40.40;31.80
55135;DHT22;41031;44.750;11.308;2022-07-22T13:25:55;40.40;31.30
55135;DHT22;41031;44.750;11.308;2022-07-22T13:28:23;40.40;31.30
55135;DHT22;41031;44.750;11.308;2022-07-22T13:30:50;40.40;31.50
55135;DHT22;41031;44.750;11.308;2022-07-22T13:33:18;40.30;31.60
55135;DHT22;41031;44.750;11.308;2022-07-22T13:35:46;40.30;30.70
55135;DHT22;41031;44.750;11.308;2022-07-22T13:38:13;40.20;31.50
55135;DHT22;41031;44.750;11.308;2022-07-22T13:40:44;40.10;31.30
55135;DHT22;41031;44.750;11.308;2022-07-22T13:43:23;40.10;31.80
55135;DHT22;41031;44.750;11.308;2022-07-22T13:45:53;40.00;32.10
55135;DHT22;41031;44.750;11.308;2022-07-22T13:48:22;40.00;32.30
55135;DHT22;41031;44.750;11.308;2022-07-22T13:50:49;40.00;32.40
55135;DHT22;41031;44.750;11.308;2022-07-22T13:53:17;40.10;32.40
55135;DHT22;41031;44.750;11.308;2022-07-22T13:55:44;40.10;32.00
55135;DHT22;41031;44.750;11.308;2022-07-22T13:58:11;40.10;32.80
55135;DHT22;41031;44.750;11.308;2022-07-22T14:00:40;40.10;33.00
55135;DHT22;41031;44.750;11.308;2022-07-22T14:03:08;40.10;32.50
55135;DHT22;41031;44.750;11.308;2022-07-22T14:05:35;40.10;32.50
55135;DHT22;41031;44.750;11.308;2022-07-22T14:08:03;40.10;32.40
55135;DHT22;41031;44.750;11.308;2022-07-22T14:10:30;40.10;31.80
55135;DHT22;41031;44.750;11.308;2022-07-22T14:12:58;40.00;31.20
55135;DHT22;41031;44.750;11.308;2022-07-22T14:15:25;39.90;31.50
55135;DHT22;41031;44.750;11.308;2022-07-22T14:17:52;39.80;31.80
55135;DHT22;41031;44.750;11.308;2022-07-22T14:20:20;39.80;31.70
55135;DHT22;41031;44.750;11.308;2022-07-22T14:22:51;39.80;31.30
55135;DHT22;41031;44.750;11.308;2022-07-22T14:25:18;39.80;31.60
55135;DHT22;41031;44.750;11.308;2022-07-22T14:27:47;39.80;31.60
55135;DHT22;41031;44.750;11.308;2022-07-22T14:30:15;39.80;30.90
55135;DHT22;41031;44.750;11.308;2022-07-22T14:32:42;39.80;30.30
55135;DHT22;41031;44.750;11.308;2022-07-22T14:35:09;39.80;30.30
55135;DHT22;41031;44.750;11.308;2022-07-22T14:37:37;39.70;29.70
55135;DHT22;41031;44.750;11.308;2022-07-22T14:40:05;39.50;30.20
55135;DHT22;41031;44.750;11.308;2022-07-22T14:42:33;39.50;30.40
55135;DHT22;41031;44.750;11.308;2022-07-22T14:45:00;39.50;30.30
55135;DHT22;41031;44.750;11.308;2022-07-22T14:47:28;39.50;30.20
55135;DHT22;41031;44.750;11.308;2022-07-22T14:49:55;39.50;30.00
55135;DHT22;41031;44.750;11.308;2022-07-22T14:52:23;39.40;30.00
55135;DHT22;41031;44.750;11.308;2022-07-22T14:54:50;39.40;30.00
55135;DHT22;41031;44.750;11.308;2022-07-22T14:57:18;39.40;30.00
55135;DHT22;41031;44.750;11.308;2022-07-22T14:59:45;39.40;30.10
55135;DHT22;41031;44.750;11.308;2022-07-22T15:02:12;39.40;30.10
55135;DHT22;41031;44.750;11.308;2022-07-22T15:04:40;39.40;29.90
55135;DHT22;41031;44.750;11.308;2022-07-22T15:07:08;39.40;29.90
55135;DHT22;41031;44.750;11.308;2022-07-22T15:09:35;39.40;30.00
55135;DHT22;41031;44.750;11.308;2022-07-22T15:12:03;39.40;30.00
55135;DHT22;41031;44.750;11.308;2022-07-22T15:14:30;39.40;30.00
55135;DHT22;41031;44.750;11.308;2022-07-22T15:16:57;39.30;30.00
55135;DHT22;41031;44.750;11.308;2022-07-22T15:19:25;39.30;29.80
55135;DHT22;41031;44.750;11.308;2022-07-22T15:21:53;39.10;29.90
55135;DHT22;41031;44.750;11.308;2022-07-22T15:24:21;39.10;30.00
55135;DHT22;41031;44.750;11.308;2022-07-22T15:26:49;39.00;30.00
55135;DHT22;41031;44.750;11.308;2022-07-22T15:29:16;38.90;29.80
55135;DHT22;41031;44.750;11.308;2022-07-22T15:31:44;38.80;29.90
55135;DHT22;41031;44.750;11.308;2022-07-22T15:34:12;38.70;30.10
55135;DHT22;41031;44.750;11.308;2022-07-22T15:36:39;38.60;29.90
55135;DHT22;41031;44.750;11.308;2022-07-22T15:39:07;38.50;30.00
55135;DHT22;41031;44.750;11.308;2022-07-22T15:41:35;38.40;30.10
55135;DHT22;41031;44.750;11.308;2022-07-22T15:44:04;38.30;30.10
55135;DHT22;41031;44.750;11.308;2022-07-22T15:46:31;38.20;30.30
55135;DHT22;41031;44.750;11.308;2022-07-22T15:48:59;38.00;30.60
55135;DHT22;41031;44.750;11.308;2022-07-22T15:51:28;37.90;30.90
55135;DHT22;41031;44.750;11.308;2022-07-22T15:53:56;37.80;31.10